createdAt,value
2022-09-12T00:01:57.240Z,15.20
2022-09-12T00:05:00.233Z,15.27
2022-09-12T00:08:02.673Z,15.24
2022-09-12T00:11:10.564Z,15.21
2022-09-12T00:14:17.790Z,15.17
2022-09-12T00:17:20.342Z,15.19
2022-09-12T00:20:22.464Z,15.22
2022-09-12T00:23:24.868Z,15.13
2022-09-12T00:26:27.259Z,15.17
2022-09-12T00:29:29.669Z,15.15
2022-09-12T00:32:31.749Z,15.25
2022-09-12T00:35:34.151Z,15.25
2022-09-12T00:38:38.571Z,15.20
2022-09-12T00:41:41.033Z,15.25
2022-09-12T00:44:46.555Z,15.21
2022-09-12T00:47:49.501Z,15.28
2022-09-12T00:50:51.579Z,15.21
2022-09-12T00:53:55.835Z,15.27
2022-09-12T00:57:03.666Z,15.30
2022-09-12T01:00:15.748Z,15.28
2022-09-12T01:03:21.790Z,15.22
2022-09-12T01:06:36.375Z,15.21
2022-09-12T01:09:39.825Z,15.26
2022-09-12T01:12:43.565Z,15.26
2022-09-12T01:15:45.871Z,15.25
2022-09-12T01:19:14.963Z,15.24
2022-09-12T01:22:43.579Z,15.22
2022-09-12T01:26:20.134Z,15.16
2022-09-12T01:29:41.016Z,15.06
2022-09-12T01:32:55.430Z,15.06
2022-09-12T01:36:19.316Z,15.02
2022-09-12T01:39:51.458Z,14.96
2022-09-12T01:42:53.702Z,14.87
2022-09-12T01:46:13.050Z,14.78
2022-09-12T01:49:26.994Z,14.72
2022-09-12T01:52:41.307Z,14.84
2022-09-12T01:55:52.235Z,14.88
2022-09-12T01:59:30.035Z,14.96
2022-09-12T02:02:43.109Z,15.09
2022-09-12T02:05:56.436Z,15.09
2022-09-12T02:09:05.895Z,15.11
2022-09-12T02:12:12.001Z,15.21
2022-09-12T02:15:17.151Z,15.23
2022-09-12T02:18:21.200Z,15.26
2022-09-12T02:21:25.691Z,15.25
2022-09-12T02:24:40.295Z,15.24
2022-09-12T02:27:46.886Z,15.24
2022-09-12T02:31:29.072Z,15.11
2022-09-12T02:34:44.647Z,15.02
2022-09-12T02:38:30.028Z,14.76
2022-09-12T02:41:32.281Z,14.75
2022-09-12T02:44:36.151Z,14.64
2022-09-12T02:47:53.502Z,14.60
2022-09-12T02:50:56.175Z,14.56
2022-09-12T02:53:59.174Z,14.51
2022-09-12T02:57:01.577Z,14.50
2022-09-12T03:00:05.240Z,14.54
2022-09-12T03:03:10.571Z,14.51
2022-09-12T03:06:33.672Z,14.50
2022-09-12T03:09:44.810Z,14.47
2022-09-12T03:13:09.404Z,14.40
2022-09-12T03:16:28.586Z,14.48
2022-09-12T03:19:52.362Z,14.53
2022-09-12T03:23:00.918Z,14.64
2022-09-12T03:26:09.346Z,14.74
2022-09-12T03:29:15.045Z,14.73
2022-09-12T03:32:17.116Z,14.75
2022-09-12T03:35:23.888Z,14.76
2022-09-12T03:38:25.979Z,14.72
2022-09-12T03:41:28.524Z,14.75
2022-09-12T03:44:30.659Z,14.77
2022-09-12T03:47:33.234Z,14.75
2022-09-12T03:50:35.378Z,14.75
2022-09-12T03:53:38.181Z,14.71
2022-09-12T03:56:41.185Z,14.63
2022-09-12T03:59:43.618Z,14.63
2022-09-12T04:02:45.693Z,14.61
2022-09-12T04:05:48.829Z,14.63
2022-09-12T04:08:53.340Z,14.59
2022-09-12T04:11:55.730Z,14.62
2022-09-12T04:14:59.886Z,14.58
2022-09-12T04:18:05.720Z,14.53
2022-09-12T04:21:11.692Z,14.76
2022-09-12T04:24:14.095Z,14.90
2022-09-12T04:27:16.260Z,14.93
2022-09-12T04:30:18.715Z,14.97
2022-09-12T04:33:21.751Z,15.07
2022-09-12T04:36:24.957Z,15.12
2022-09-12T04:39:27.120Z,15.22
2022-09-12T04:42:29.721Z,15.32
2022-09-12T04:45:31.853Z,15.34
2022-09-12T04:48:34.723Z,15.35
2022-09-12T04:51:39.322Z,15.33
2022-09-12T04:54:41.751Z,15.33
2022-09-12T04:57:43.854Z,15.30
2022-09-12T05:00:46.262Z,15.23
2022-09-12T05:03:50.182Z,15.29
2022-09-12T05:06:52.605Z,15.33
2022-09-12T05:09:55.291Z,15.40
2022-09-12T05:12:57.666Z,15.62
2022-09-12T05:16:02.044Z,16.34
2022-09-12T05:19:05.471Z,17.97
2022-09-12T05:22:07.764Z,20.25
2022-09-12T05:25:10.849Z,21.90
2022-09-12T05:28:13.112Z,23.55
2022-09-12T05:31:22.530Z,24.88
2022-09-12T05:34:24.795Z,25.65
2022-09-12T05:37:27.205Z,26.47
2022-09-12T05:40:29.291Z,26.68
2022-09-12T05:43:33.365Z,27.72
2022-09-12T05:46:41.311Z,28.13
2022-09-12T05:49:45.193Z,28.48
2022-09-12T05:52:47.253Z,28.98
2022-09-12T05:55:50.233Z,28.29
2022-09-12T05:58:55.316Z,28.15
2022-09-12T06:01:57.710Z,27.98
2022-09-12T06:05:00.220Z,26.92
2022-09-12T06:08:02.675Z,24.38
2022-09-12T06:11:06.898Z,24.04
2022-09-12T06:14:11.550Z,23.97
2022-09-12T06:17:14.153Z,24.99
2022-09-12T06:20:16.406Z,26.64
2022-09-12T06:23:18.879Z,27.90
2022-09-12T06:26:25.481Z,26.77
2022-09-12T06:29:28.377Z,25.95
2022-09-12T06:32:31.432Z,26.25
2022-09-12T06:35:36.777Z,26.46
2022-09-12T06:38:40.575Z,28.13
2022-09-12T06:41:44.358Z,29.43
2022-09-12T06:44:46.715Z,30.36
2022-09-12T06:47:50.297Z,29.59
2022-09-12T06:51:00.880Z,30.14
2022-09-12T06:54:03.794Z,30.77
2022-09-12T06:57:06.338Z,31.29
2022-09-12T07:00:10.184Z,30.94
2022-09-12T07:03:12.315Z,31.71
2022-09-12T07:06:16.725Z,31.44
2022-09-12T07:09:18.964Z,31.12
2022-09-12T07:12:23.708Z,30.63
2022-09-12T07:15:27.315Z,31.06
2022-09-12T07:18:29.759Z,30.73
2022-09-12T07:21:31.940Z,31.34
2022-09-12T07:24:34.335Z,30.53
2022-09-12T07:27:37.737Z,29.01
2022-09-12T07:30:40.210Z,28.56
2022-09-12T07:34:07.680Z,27.59
2022-09-12T07:37:10.767Z,28.29
2022-09-12T07:40:13.466Z,28.47
2022-09-12T07:51:25.385Z,23.76
2022-09-12T07:54:28.062Z,23.22
2022-09-12T07:57:31.564Z,22.96
2022-09-12T08:00:38.010Z,22.34
2022-09-12T08:03:50.260Z,22.32
2022-09-12T08:06:52.670Z,22.34
2022-09-12T08:09:55.091Z,22.45
2022-09-12T08:13:01.428Z,22.58
2022-09-12T08:16:11.979Z,22.74
2022-09-12T08:19:16.840Z,22.44
2022-09-12T08:22:22.104Z,22.71
2022-09-12T08:25:24.525Z,23.04
2022-09-12T08:28:27.851Z,23.14
2022-09-12T08:31:36.597Z,22.63
2022-09-12T08:34:39.169Z,22.57
2022-09-12T08:37:41.210Z,22.51
2022-09-12T08:41:01.552Z,22.65
2022-09-12T08:44:42.490Z,22.39
2022-09-12T08:47:46.877Z,22.63
2022-09-12T08:50:50.067Z,22.64
2022-09-12T08:53:56.420Z,22.85
2022-09-12T08:57:03.634Z,22.94
2022-09-12T09:00:12.441Z,22.89
2022-09-12T09:03:35.008Z,22.87
2022-09-12T09:06:41.529Z,22.71
2022-09-12T09:10:07.840Z,22.80
2022-09-12T09:13:57.572Z,22.90
2022-09-12T09:17:02.982Z,22.98
2022-09-12T09:20:12.466Z,22.70
2022-09-12T09:23:30.866Z,22.67
2022-09-12T09:27:01.647Z,22.89
2022-09-12T09:30:04.070Z,22.62
2022-09-12T09:33:10.306Z,22.86
2022-09-12T09:36:41.445Z,22.76
2022-09-12T09:40:06.503Z,22.62
2022-09-12T09:43:29.051Z,22.77
2022-09-12T09:46:32.461Z,22.90
2022-09-12T09:49:36.115Z,22.89
2022-09-12T09:52:40.673Z,22.47
2022-09-12T09:55:44.531Z,22.45
2022-09-12T09:58:47.007Z,22.62
2022-09-12T10:02:24.072Z,22.82
2022-09-12T10:05:28.570Z,22.77
2022-09-12T10:08:37.414Z,23.07
2022-09-12T10:11:45.823Z,23.27
2022-09-12T10:15:00.690Z,23.36
2022-09-12T10:18:03.753Z,23.10
2022-09-12T10:21:19.446Z,23.07
2022-09-12T10:24:29.247Z,22.49
2022-09-12T10:27:33.029Z,22.27
2022-09-12T10:30:36.045Z,22.51
2022-09-12T10:33:47.473Z,22.68
2022-09-12T10:36:55.123Z,22.90
2022-09-12T10:39:59.243Z,22.69
2022-09-12T10:43:15.755Z,22.77
2022-09-12T10:46:20.898Z,22.77
2022-09-12T10:49:29.926Z,23.00
2022-09-12T10:52:32.401Z,23.56
2022-09-12T10:55:37.308Z,23.91
2022-09-12T10:58:57.759Z,24.28
2022-09-12T11:02:09.350Z,23.69
2022-09-12T11:05:19.499Z,23.53
2022-09-12T11:09:04.486Z,22.91
2022-09-12T11:12:17.336Z,22.75
2022-09-12T11:15:41.305Z,22.69
2022-09-12T11:19:08.502Z,22.46
2022-09-12T11:22:27.642Z,22.22
2022-09-12T11:25:59.508Z,22.31
2022-09-12T11:29:39.922Z,21.96
2022-09-12T11:33:05.633Z,22.17
2022-09-12T11:36:21.429Z,22.15
2022-09-12T11:39:35.122Z,22.21
2022-09-12T11:42:40.380Z,21.89
2022-09-12T11:45:45.218Z,21.48
2022-09-12T11:49:03.030Z,21.27
2022-09-12T11:52:23.824Z,21.79
2022-09-12T11:55:34.770Z,22.65
2022-09-12T11:58:38.633Z,23.02
2022-09-12T12:01:48.524Z,23.22
2022-09-12T12:05:26.738Z,23.33
2022-09-12T12:08:32.014Z,22.98
2022-09-12T12:11:39.418Z,22.73
2022-09-12T12:14:47.929Z,22.52
2022-09-12T12:18:08.574Z,22.02
2022-09-12T12:21:37.614Z,21.97
2022-09-12T12:24:55.371Z,22.52
2022-09-12T12:28:02.230Z,22.94
2022-09-12T12:31:05.754Z,22.86
2022-09-12T12:34:22.657Z,22.69
2022-09-12T12:37:29.618Z,23.15
2022-09-12T12:40:36.103Z,23.40
2022-09-12T12:43:38.678Z,23.65
2022-09-12T12:46:40.942Z,23.58
2022-09-12T12:49:51.961Z,23.52
2022-09-12T12:53:06.762Z,23.50
2022-09-12T12:56:37.975Z,23.75
2022-09-12T12:59:51.861Z,23.95
2022-09-12T13:03:10.704Z,23.79
2022-09-12T13:06:31.530Z,23.75
2022-09-12T13:09:43.146Z,23.65
2022-09-12T13:12:47.797Z,23.39
2022-09-12T13:15:53.782Z,23.31
2022-09-12T13:18:58.037Z,23.06
2022-09-12T13:22:03.178Z,22.76
2022-09-12T13:25:24.070Z,22.56
2022-09-12T13:28:29.178Z,22.39
2022-09-12T13:31:32.208Z,22.18
2022-09-12T13:34:41.215Z,22.29
2022-09-12T13:38:03.307Z,22.51
2022-09-12T13:41:27.085Z,22.77
2022-09-12T13:44:32.204Z,22.78
2022-09-12T13:47:58.756Z,22.87
2022-09-12T13:51:02.812Z,22.82
2022-09-12T13:54:06.161Z,22.58
2022-09-12T13:57:37.693Z,22.36
2022-09-12T14:00:42.218Z,22.19
2022-09-12T14:04:14.421Z,21.88
2022-09-12T14:07:22.827Z,21.80
2022-09-12T14:10:31.785Z,21.39
2022-09-12T14:13:34.194Z,21.14
2022-09-12T14:16:40.163Z,21.03
2022-09-12T14:19:43.401Z,20.85
2022-09-12T14:22:51.855Z,20.76
2022-09-12T14:25:55.659Z,20.83
2022-09-12T14:28:59.087Z,20.77
2022-09-12T14:32:03.605Z,20.76
2022-09-12T14:35:14.740Z,20.91
2022-09-12T14:38:16.871Z,21.09
2022-09-12T14:41:29.573Z,21.18
2022-09-12T14:44:33.065Z,21.15
2022-09-12T14:47:43.588Z,21.23
2022-09-12T14:50:50.423Z,21.32
2022-09-12T14:53:53.159Z,21.18
2022-09-12T14:56:58.042Z,21.18
2022-09-12T15:00:22.470Z,21.24
2022-09-12T15:03:33.649Z,20.99
2022-09-12T15:06:39.540Z,20.84
2022-09-12T15:09:47.244Z,20.76
2022-09-12T15:12:49.941Z,20.72
2022-09-12T15:15:58.081Z,20.75
2022-09-12T15:19:00.481Z,20.94
2022-09-12T15:22:04.853Z,20.93
2022-09-12T15:25:09.156Z,20.85
2022-09-12T15:28:19.660Z,20.84
2022-09-12T15:31:27.849Z,20.84
2022-09-12T15:34:30.103Z,20.71
2022-09-12T15:37:32.467Z,20.62
2022-09-12T15:40:34.747Z,20.68
2022-09-12T15:43:37.065Z,20.62
2022-09-12T15:46:39.228Z,20.63
2022-09-12T15:49:41.691Z,20.63
2022-09-12T15:52:44.545Z,20.58
2022-09-12T15:55:48.492Z,20.44
2022-09-12T15:58:58.760Z,20.49
2022-09-12T16:02:02.498Z,20.46
2022-09-12T16:05:05.961Z,20.38
2022-09-12T16:08:08.055Z,20.37
2022-09-12T16:11:18.804Z,20.26
2022-09-12T16:14:21.058Z,20.19
2022-09-12T16:17:23.527Z,20.19
2022-09-12T16:20:26.215Z,20.10
2022-09-12T16:23:28.575Z,20.06
2022-09-12T16:26:30.799Z,19.98
2022-09-12T16:29:33.150Z,19.97
2022-09-12T16:32:35.613Z,19.88
2022-09-12T16:35:37.944Z,19.77
2022-09-12T16:38:41.619Z,19.67
2022-09-12T16:41:44.360Z,19.69
2022-09-12T16:44:47.000Z,19.65
2022-09-12T16:47:50.415Z,19.62
2022-09-12T16:50:57.165Z,19.43
2022-09-12T16:53:59.668Z,19.43
2022-09-12T16:57:02.557Z,19.30
2022-09-12T17:00:06.724Z,19.17
2022-09-12T17:03:09.873Z,19.06
2022-09-12T17:06:17.283Z,18.90
2022-09-12T17:09:19.569Z,18.73
2022-09-12T17:12:21.988Z,18.69
2022-09-12T17:15:24.363Z,18.58
2022-09-12T17:18:26.759Z,18.54
2022-09-12T17:21:31.950Z,18.52
2022-09-12T17:24:34.603Z,18.49
2022-09-12T17:27:37.165Z,18.46
2022-09-12T17:30:39.741Z,18.50
2022-09-12T17:33:44.555Z,18.39
2022-09-12T17:36:48.346Z,18.34
2022-09-12T17:39:50.531Z,18.22
2022-09-12T17:42:52.973Z,18.16
2022-09-12T17:45:58.262Z,18.06
2022-09-12T17:49:01.472Z,18.02
2022-09-12T17:52:03.547Z,17.99
2022-09-12T17:55:07.106Z,17.94
2022-09-12T17:58:09.406Z,18.00
2022-09-12T18:01:33.860Z,18.03
2022-09-12T18:04:36.436Z,17.98
2022-09-12T18:07:43.490Z,17.89
2022-09-12T18:10:46.850Z,17.79
2022-09-12T18:13:49.254Z,17.81
2022-09-12T18:16:52.465Z,17.82
2022-09-12T18:19:55.266Z,17.74
2022-09-12T18:22:57.929Z,17.55
2022-09-12T18:26:02.285Z,17.50
2022-09-12T18:29:06.991Z,17.42
2022-09-12T18:32:10.263Z,17.41
2022-09-12T18:35:12.790Z,17.43
2022-09-12T18:38:14.904Z,17.30
2022-09-12T18:41:22.469Z,17.19
2022-09-12T18:44:24.668Z,17.07
2022-09-12T18:47:27.044Z,17.11
2022-09-12T18:50:29.151Z,17.04
2022-09-12T18:53:35.428Z,17.16
2022-09-12T18:56:38.799Z,17.08
2022-09-12T18:59:41.151Z,17.10
2022-09-12T19:02:43.371Z,17.10
2022-09-12T19:05:45.752Z,17.07
2022-09-12T19:08:49.672Z,17.02
2022-09-12T19:11:53.442Z,16.98
2022-09-12T19:14:56.435Z,16.92
2022-09-12T19:17:58.781Z,16.85
2022-09-12T19:21:03.967Z,16.88
2022-09-12T19:24:10.051Z,16.91
2022-09-12T19:27:13.500Z,16.97
2022-09-12T19:30:15.833Z,16.91
2022-09-12T19:33:18.928Z,16.86
2022-09-12T19:36:43.712Z,16.90
2022-09-12T19:39:45.897Z,16.74
2022-09-12T19:42:49.464Z,16.69
2022-09-12T19:45:52.274Z,16.63
2022-09-12T19:48:54.735Z,16.61
2022-09-12T19:51:56.854Z,16.55
2022-09-12T19:55:00.366Z,16.54
2022-09-12T19:58:03.619Z,16.62
2022-09-12T20:01:10.330Z,16.51
2022-09-12T20:04:12.768Z,16.41
2022-09-12T20:07:15.096Z,16.28
2022-09-12T20:10:17.475Z,16.28
2022-09-12T20:13:19.538Z,16.13
2022-09-12T20:16:29.079Z,16.14
2022-09-12T20:19:31.604Z,16.02
2022-09-12T20:22:37.983Z,15.96
2022-09-12T20:25:42.035Z,15.89
2022-09-12T20:28:44.373Z,15.71
2022-09-12T20:31:46.531Z,15.56
2022-09-12T20:34:48.985Z,15.39
2022-09-12T20:37:51.139Z,15.30
2022-09-12T20:40:53.529Z,15.24
2022-09-12T20:43:57.083Z,15.11
2022-09-12T20:46:59.651Z,15.15
2022-09-12T20:50:01.853Z,15.12
2022-09-12T20:53:05.702Z,15.17
2022-09-12T20:56:07.841Z,15.03
2022-09-12T20:59:12.520Z,15.02
2022-09-12T21:02:15.957Z,14.96
2022-09-12T21:05:18.463Z,14.93
2022-09-12T21:08:21.733Z,14.74
2022-09-12T21:11:24.591Z,14.75
2022-09-12T21:14:26.651Z,14.75
2022-09-12T21:17:29.015Z,14.62
2022-09-12T21:20:32.037Z,14.51
2022-09-12T21:23:34.668Z,14.41
2022-09-12T21:26:36.740Z,14.58
2022-09-12T21:29:39.138Z,14.42
2022-09-12T21:32:41.464Z,14.28
2022-09-12T21:35:44.450Z,14.01
2022-09-12T21:38:46.648Z,13.97
2022-09-12T21:41:49.016Z,13.94
2022-09-12T21:44:51.166Z,14.00
2022-09-12T21:47:53.520Z,14.17
2022-09-12T21:50:55.799Z,14.05
2022-09-12T21:53:58.192Z,13.89
2022-09-12T21:57:00.422Z,13.84
2022-09-12T22:00:05.823Z,13.99
2022-09-12T22:03:22.888Z,13.93
2022-09-12T22:06:27.387Z,13.94
2022-09-12T22:09:31.787Z,14.11
2022-09-12T22:12:34.336Z,13.88
2022-09-12T22:15:40.589Z,13.81
2022-09-12T22:18:46.689Z,13.69
2022-09-12T22:22:08.260Z,13.80
2022-09-12T22:25:12.882Z,13.79
2022-09-12T22:28:15.100Z,13.46
2022-09-12T22:31:17.971Z,13.46
2022-09-12T22:34:20.272Z,13.24
2022-09-12T22:37:24.427Z,13.20
2022-09-12T22:40:27.720Z,13.16
2022-09-12T22:43:31.212Z,12.75
2022-09-12T22:46:34.818Z,12.81
2022-09-12T22:49:38.659Z,12.70
2022-09-12T22:52:41.644Z,12.65
2022-09-12T22:55:44.997Z,12.79
2022-09-12T22:58:47.054Z,12.62
2022-09-12T23:01:49.519Z,12.70
2022-09-12T23:04:52.347Z,12.74
2022-09-12T23:07:55.551Z,12.84
2022-09-12T23:11:09.834Z,12.69
2022-09-12T23:14:12.407Z,12.55
2022-09-12T23:17:15.956Z,12.17
2022-09-12T23:20:18.548Z,12.46
2022-09-12T23:23:21.652Z,12.68
2022-09-12T23:26:28.151Z,12.88
2022-09-12T23:29:34.522Z,12.93
2022-09-12T23:32:40.342Z,12.64
2022-09-12T23:35:44.075Z,12.77
2022-09-12T23:38:49.281Z,12.80
2022-09-12T23:41:52.064Z,12.36
2022-09-12T23:44:54.455Z,12.28
2022-09-12T23:47:57.949Z,12.45
2022-09-12T23:51:01.247Z,12.33
2022-09-12T23:54:03.387Z,12.30
2022-09-12T23:57:05.776Z,12.01
